Time;durP1;ratioP1;P1;durP2;ratioP2;P2;SDS_P1;SDS_P2;PMS_P1;PMS_P2;Temp;Humidity;BMP_temperature;BMP_pressure;BME280_temperature;BME280_humidity;BME280_pressure;Samples;Min_cycle;Max_cycle;Signal;HPM_P1;HPM_P2
2022/12/29 00:00:07;;;;;;;15.48;9.48;;;;;;;;;;5008109;28;20387;-58
2022/12/29 00:02:33;;;;;;;14.48;9.48;;;;;;;;;;5037987;23;20391;-65
2022/12/29 00:04:59;;;;;;;14.73;9.80;;;;;;;;;;5028427;28;20497;-65
2022/12/29 00:07:25;;;;;;;16.00;9.80;;;;;;;;;;5028276;28;20079;-66
2022/12/29 00:09:52;;;;;;;14.90;9.75;;;;;;;;;;5028814;28;20218;-66
2022/12/29 00:12:17;;;;;;;14.93;9.88;;;;;;;;;;5028815;28;20028;-65
2022/12/29 00:17:28;;;;;;;14.60;9.68;;;;;;;;;;5029350;28;20064;-65
2022/12/29 00:36:28;;;;;;;14.02;9.02;;;;;;;;;;5030525;28;20516;-66
2022/12/29 00:44:29;;;;;;;16.45;9.18;;;;;;;;;;5029710;28;20040;-65
2022/12/29 00:46:55;;;;;;;14.10;9.00;;;;;;;;;;5029099;28;20022;-66
2022/12/29 00:49:30;;;;;;;15.30;9.15;;;;;;;;;;5030275;28;20068;-64
2022/12/29 00:51:56;;;;;;;14.00;8.90;;;;;;;;;;5030182;28;20025;-65
2022/12/29 00:54:22;;;;;;;14.60;8.70;;;;;;;;;;5033294;28;20440;-67
2022/12/29 00:56:49;;;;;;;15.07;8.40;;;;;;;;;;5034206;28;20075;-66
2022/12/29 00:59:14;;;;;;;15.35;8.88;;;;;;;;;;5033947;28;20082;-66
2022/12/29 01:01:40;;;;;;;13.95;9.18;;;;;;;;;;5033600;28;20470;-66
2022/12/29 01:04:07;;;;;;;14.60;9.90;;;;;;;;;;5031821;28;20026;-66
2022/12/29 01:06:34;;;;;;;15.85;10.57;;;;;;;;;;5033857;28;20025;-66
2022/12/29 01:11:45;;;;;;;21.98;20.08;;;;;;;;;;5033486;28;20504;-65
2022/12/29 01:14:11;;;;;;;40.33;37.65;;;;;;;;;;5033108;28;20029;-64
2022/12/29 01:16:37;;;;;;;40.63;37.92;;;;;;;;;;5033565;28;20028;-63
2022/12/29 01:19:03;;;;;;;41.40;38.70;;;;;;;;;;5033553;28;20029;-64
2022/12/29 01:21:29;;;;;;;42.13;39.30;;;;;;;;;;5033234;28;20037;-66
2022/12/29 01:23:55;;;;;;;41.22;38.50;;;;;;;;;;5032543;28;20083;-64
2022/12/29 01:26:21;;;;;;;42.58;39.80;;;;;;;;;;5033520;28;20056;-63
2022/12/29 01:28:47;;;;;;;42.63;39.92;;;;;;;;;;5032082;28;20442;-64
2022/12/29 01:31:14;;;;;;;40.28;37.58;;;;;;;;;;5033217;28;20036;-64
2022/12/29 01:33:41;;;;;;;39.38;36.78;;;;;;;;;;5032318;28;20498;-64
2022/12/29 01:36:08;;;;;;;37.80;35.20;;;;;;;;;;5033330;28;20100;-64
2022/12/29 01:38:35;;;;;;;36.92;34.33;;;;;;;;;;5033324;28;20041;-64
2022/12/29 01:41:01;;;;;;;35.58;33.08;;;;;;;;;;5033016;28;20113;-64
2022/12/29 01:43:39;;;;;;;39.35;36.55;;;;;;;;;;5032487;28;20025;-63
2022/12/29 01:46:08;;;;;;;43.53;40.83;;;;;;;;;;5033022;28;20030;-64
2022/12/29 01:48:34;;;;;;;43.85;41.05;;;;;;;;;;5033066;28;20439;-64
2022/12/29 01:51:00;;;;;;;43.83;41.03;;;;;;;;;;5031583;28;20090;-64
2022/12/29 01:53:28;;;;;;;44.50;41.63;;;;;;;;;;5032258;28;20033;-64
2022/12/29 01:56:00;;;;;;;44.40;41.60;;;;;;;;;;5033099;28;20029;-64
2022/12/29 01:58:28;;;;;;;44.55;41.75;;;;;;;;;;5032799;28;20272;-63
2022/12/29 02:00:54;;;;;;;42.08;39.38;;;;;;;;;;5032833;28;20030;-64
2022/12/29 02:03:21;;;;;;;42.08;39.22;;;;;;;;;;5031797;28;20056;-63
2022/12/29 02:05:53;;;;;;;40.10;37.50;;;;;;;;;;5032093;28;20295;-63
2022/12/29 02:08:19;;;;;;;39.50;36.90;;;;;;;;;;5032754;28;20065;-63
2022/12/29 02:10:45;;;;;;;36.65;34.05;;;;;;;;;;5032337;28;20079;-64
2022/12/29 02:13:11;;;;;;;34.10;31.70;;;;;;;;;;5031943;28;20029;-64
2022/12/29 02:15:52;;;;;;;33.20;30.73;;;;;;;;;;5032908;28;20032;-63
2022/12/29 02:18:26;;;;;;;32.25;29.95;;;;;;;;;;5032610;28;20021;-63
2022/12/29 02:21:07;;;;;;;30.75;28.40;;;;;;;;;;5032784;28;20026;-64
2022/12/29 02:23:45;;;;;;;29.80;27.58;;;;;;;;;;5031924;28;20026;-64
2022/12/29 02:26:11;;;;;;;28.10;25.90;;;;;;;;;;5031330;28;20021;-63
2022/12/29 02:28:37;;;;;;;27.05;24.85;;;;;;;;;;5032339;28;20551;-64
2022/12/29 02:31:06;;;;;;;26.63;24.52;;;;;;;;;;5032438;28;20416;-64
2022/12/29 02:33:51;;;;;;;26.50;24.40;;;;;;;;;;5030311;28;20029;-65
2022/12/29 02:36:35;;;;;;;25.42;23.25;;;;;;;;;;5032306;28;20030;-64
2022/12/29 02:39:07;;;;;;;24.48;22.38;;;;;;;;;;5030703;28;20065;-64
2022/12/29 02:41:39;;;;;;;23.63;21.63;;;;;;;;;;5031995;28;20409;-64
2022/12/29 02:44:13;;;;;;;23.35;21.33;;;;;;;;;;5031137;28;20025;-64
2022/12/29 02:46:51;;;;;;;23.90;21.63;;;;;;;;;;5032274;28;20022;-64
2022/12/29 02:49:28;;;;;;;22.42;20.42;;;;;;;;;;5030895;28;20030;-64
2022/12/29 02:52:09;;;;;;;21.13;19.23;;;;;;;;;;5031948;28;20037;-63
2022/12/29 02:54:42;;;;;;;19.65;17.77;;;;;;;;;;5031209;28;20551;-64
2022/12/29 02:57:28;;;;;;;18.90;17.10;;;;;;;;;;5031509;28;20048;-64
2022/12/29 03:00:14;;;;;;;16.55;14.85;;;;;;;;;;5031815;28;20026;-64
2022/12/29 03:03:07;;;;;;;16.00;14.30;;;;;;;;;;5031372;28;20069;-64
2022/12/29 03:05:55;;;;;;;15.50;12.57;;;;;;;;;;5031601;28;20029;-64
2022/12/29 03:08:39;;;;;;;15.60;11.95;;;;;;;;;;5031738;28;20096;-65
2022/12/29 03:12:07;;;;;;;15.85;11.57;;;;;;;;;;5031452;28;20021;-64
2022/12/29 03:16:50;;;;;;;15.05;11.25;;;;;;;;;;5031685;28;20056;-65
2022/12/29 03:19:25;;;;;;;14.57;10.70;;;;;;;;;;5031200;28;20124;-66
2022/12/29 03:24:41;;;;;;;14.85;10.35;;;;;;;;;;5030476;28;20067;-64
2022/12/29 03:27:10;;;;;;;14.95;10.32;;;;;;;;;;5031061;28;20024;-65
2022/12/29 03:29:37;;;;;;;14.60;10.27;;;;;;;;;;5031034;28;20044;-65
2022/12/29 03:32:05;;;;;;;14.30;10.00;;;;;;;;;;5029646;28;20398;-65
2022/12/29 03:34:31;;;;;;;14.80;9.93;;;;;;;;;;5028897;28;20474;-66
2022/12/29 03:37:03;;;;;;;14.80;10.15;;;;;;;;;;5029733;28;20397;-66
2022/12/29 03:39:29;;;;;;;15.32;9.80;;;;;;;;;;5030820;28;20506;-65
2022/12/29 03:42:00;;;;;;;14.73;9.05;;;;;;;;;;5030695;28;20043;-66
2022/12/29 03:44:34;;;;;;;13.13;7.10;;;;;;;;;;5029909;28;20111;-66
2022/12/29 03:47:00;;;;;;;13.85;7.50;;;;;;;;;;5030802;28;20018;-66
2022/12/29 03:49:26;;;;;;;13.80;7.25;;;;;;;;;;5030644;28;20021;-66
2022/12/29 03:51:52;;;;;;;12.93;6.90;;;;;;;;;;5030700;28;20021;-66
2022/12/29 03:54:18;;;;;;;12.93;7.20;;;;;;;;;;5029891;28;20116;-66
2022/12/29 03:56:44;;;;;;;14.48;7.40;;;;;;;;;;5029449;28;20033;-65
2022/12/29 03:59:10;;;;;;;15.07;7.30;;;;;;;;;;5030596;28;20033;-65
2022/12/29 04:01:36;;;;;;;13.93;7.10;;;;;;;;;;5029353;28;20080;-66
2022/12/29 04:04:02;;;;;;;12.98;6.80;;;;;;;;;;5029768;28;20029;-66
2022/12/29 04:06:28;;;;;;;13.57;7.03;;;;;;;;;;5030676;28;20033;-65
2022/12/29 04:08:54;;;;;;;13.95;7.50;;;;;;;;;;5030481;28;20021;-66
2022/12/29 04:11:20;;;;;;;13.20;7.40;;;;;;;;;;5030350;28;20025;-66
2022/12/29 04:13:46;;;;;;;13.75;7.63;;;;;;;;;;5029619;28;20445;-66
2022/12/29 04:16:12;;;;;;;13.48;7.72;;;;;;;;;;5030438;28;20030;-66
2022/12/29 04:18:38;;;;;;;13.38;7.45;;;;;;;;;;5030345;28;20138;-66
2022/12/29 04:21:05;;;;;;;13.85;7.93;;;;;;;;;;5030185;28;20026;-66
2022/12/29 04:23:32;;;;;;;15.63;8.90;;;;;;;;;;5029454;28;20029;-66
2022/12/29 04:25:58;;;;;;;14.25;8.90;;;;;;;;;;5030190;28;20099;-66
2022/12/29 04:28:24;;;;;;;29.05;15.93;;;;;;;;;;5032859;28;20022;-64
2022/12/29 04:30:50;;;;;;;22.90;21.00;;;;;;;;;;5034308;28;20493;-65
2022/12/29 04:33:16;;;;;;;42.97;40.17;;;;;;;;;;5032064;28;20079;-64
2022/12/29 04:35:43;;;;;;;52.22;48.97;;;;;;;;;;5033945;28;20040;-64
2022/12/29 04:38:09;;;;;;;54.25;50.95;;;;;;;;;;5034028;28;20025;-63
2022/12/29 04:40:36;;;;;;;55.03;51.60;;;;;;;;;;5033918;28;20053;-63
2022/12/29 04:43:02;;;;;;;53.53;50.25;;;;;;;;;;5033346;28;20038;-58
2022/12/29 04:45:28;;;;;;;53.50;50.15;;;;;;;;;;5033946;28;20029;-64
2022/12/29 04:47:54;;;;;;;51.67;48.25;;;;;;;;;;5034075;28;20028;-62
2022/12/29 04:50:20;;;;;;;53.13;49.70;;;;;;;;;;5032504;28;20030;-64
2022/12/29 04:52:46;;;;;;;54.40;50.90;;;;;;;;;;5033587;28;20097;-62
2022/12/29 04:55:12;;;;;;;52.80;49.30;;;;;;;;;;5031807;28;20029;-62
2022/12/29 04:57:38;;;;;;;52.00;48.70;;;;;;;;;;5034104;28;20033;-62
2022/12/29 05:00:04;;;;;;;50.28;47.08;;;;;;;;;;5033752;28;20025;-61
2022/12/29 05:02:30;;;;;;;48.78;45.60;;;;;;;;;;5033512;28;20140;-61
2022/12/29 05:04:56;;;;;;;49.35;45.65;;;;;;;;;;5032734;28;20474;-61
2022/12/29 05:07:22;;;;;;;51.13;47.80;;;;;;;;;;5033773;28;20022;-61
2022/12/29 05:09:48;;;;;;;51.58;47.80;;;;;;;;;;5033770;28;20387;-56
2022/12/29 05:12:14;;;;;;;52.15;48.65;;;;;;;;;;5033632;28;20408;-56
2022/12/29 05:14:40;;;;;;;47.88;44.63;;;;;;;;;;5032875;28;20025;-55
2022/12/29 05:17:06;;;;;;;34.55;31.80;;;;;;;;;;5033611;28;20021;-58
2022/12/29 05:19:32;;;;;;;37.22;34.63;;;;;;;;;;5033590;28;20037;-55
2022/12/29 05:21:58;;;;;;;36.00;33.22;;;;;;;;;;5033230;28;20075;-53
2022/12/29 05:24:24;;;;;;;34.85;32.35;;;;;;;;;;5032734;28;20025;-54
2022/12/29 05:26:50;;;;;;;35.15;32.63;;;;;;;;;;5033476;28;20033;-57
2022/12/29 05:29:16;;;;;;;36.22;33.72;;;;;;;;;;5033588;28;20474;-56
2022/12/29 05:31:42;;;;;;;35.50;33.00;;;;;;;;;;5033565;28;20033;-54
2022/12/29 05:34:09;;;;;;;35.63;33.13;;;;;;;;;;5033184;28;20504;-58
2022/12/29 05:36:35;;;;;;;54.47;51.28;;;;;;;;;;5032265;28;20037;-57
2022/12/29 05:39:01;;;;;;;53.78;50.58;;;;;;;;;;5032289;28;20021;-55
2022/12/29 05:41:27;;;;;;;53.50;50.30;;;;;;;;;;5033127;28;20097;-58
2022/12/29 05:43:53;;;;;;;53.45;50.35;;;;;;;;;;5031277;28;20030;-58
2022/12/29 05:46:19;;;;;;;55.78;51.92;;;;;;;;;;5033327;28;20057;-57
2022/12/29 05:48:45;;;;;;;55.20;51.88;;;;;;;;;;5033312;28;20040;-55
2022/12/29 05:51:11;;;;;;;51.60;48.40;;;;;;;;;;5033148;28;20608;-58
2022/12/29 05:53:37;;;;;;;53.63;50.42;;;;;;;;;;5032359;28;20103;-56
2022/12/29 05:56:03;;;;;;;56.70;53.30;;;;;;;;;;5033077;28;20029;-58
2022/12/29 05:58:29;;;;;;;57.53;53.88;;;;;;;;;;5031546;28;20080;-55
2022/12/29 06:00:55;;;;;;;53.63;50.40;;;;;;;;;;5032731;28;20100;-56
2022/12/29 06:03:21;;;;;;;52.00;48.60;;;;;;;;;;5040264;23;20883;-52
2022/12/29 06:05:47;;;;;;;48.22;44.95;;;;;;;;;;5013953;28;20028;-53
2022/12/29 06:08:13;;;;;;;44.15;41.25;;;;;;;;;;5014079;28;20032;-55
2022/12/29 06:10:39;;;;;;;44.45;41.25;;;;;;;;;;5014002;28;20030;-51
2022/12/29 06:13:05;;;;;;;43.83;41.03;;;;;;;;;;5013286;28;20094;-56
2022/12/29 06:15:32;;;;;;;42.38;39.33;;;;;;;;;;5012688;28;20022;-52
2022/12/29 06:17:58;;;;;;;40.30;37.33;;;;;;;;;;5013741;28;20025;-53
2022/12/29 06:20:24;;;;;;;38.97;36.28;;;;;;;;;;5013962;28;20360;-50
2022/12/29 06:22:50;;;;;;;37.88;35.28;;;;;;;;;;5013617;28;20041;-52
2022/12/29 06:25:16;;;;;;;38.47;35.70;;;;;;;;;;5011646;28;20030;-54
2022/12/29 06:27:43;;;;;;;35.88;33.25;;;;;;;;;;5013585;28;20057;-53
2022/12/29 06:30:09;;;;;;;36.53;34.03;;;;;;;;;;5013550;28;20453;-50
2022/12/29 06:32:35;;;;;;;36.55;33.80;;;;;;;;;;5013401;28;20030;-51
2022/12/29 06:35:02;;;;;;;35.17;32.65;;;;;;;;;;5012799;28;20113;-53
2022/12/29 06:37:28;;;;;;;34.85;32.25;;;;;;;;;;5013283;28;20068;-54
2022/12/29 06:39:54;;;;;;;33.63;30.95;;;;;;;;;;5013358;28;20088;-56
2022/12/29 06:42:20;;;;;;;32.70;30.40;;;;;;;;;;5013140;28;20057;-55
2022/12/29 06:44:46;;;;;;;32.20;29.70;;;;;;;;;;5011220;28;20483;-56
2022/12/29 06:47:12;;;;;;;32.80;30.50;;;;;;;;;;5011744;28;20505;-53
2022/12/29 06:49:38;;;;;;;33.90;31.30;;;;;;;;;;5012995;28;20226;-51
2022/12/29 06:52:04;;;;;;;30.40;28.10;;;;;;;;;;5012676;28;20022;-51
2022/12/29 06:54:31;;;;;;;30.00;27.63;;;;;;;;;;5010700;28;20022;-53
2022/12/29 06:56:57;;;;;;;28.40;26.23;;;;;;;;;;5012958;28;20356;-56
2022/12/29 06:59:24;;;;;;;28.63;26.20;;;;;;;;;;5013019;28;20037;-56
2022/12/29 07:01:50;;;;;;;25.65;23.45;;;;;;;;;;5011350;28;20036;-57
2022/12/29 07:04:16;;;;;;;19.45;17.42;;;;;;;;;;5011977;28;20104;-56
2022/12/29 07:06:42;;;;;;;18.38;15.50;;;;;;;;;;5012728;28;20053;-57
2022/12/29 07:09:08;;;;;;;17.30;13.50;;;;;;;;;;5012772;28;20022;-55
2022/12/29 07:11:34;;;;;;;17.75;11.38;;;;;;;;;;5012462;28;20482;-54
2022/12/29 07:14:00;;;;;;;16.73;11.40;;;;;;;;;;5012001;28;20037;-59
2022/12/29 07:16:26;;;;;;;16.30;10.02;;;;;;;;;;5011447;28;20030;-54
2022/12/29 07:18:52;;;;;;;15.00;10.23;;;;;;;;;;5012414;28;20032;-59
2022/12/29 07:21:19;;;;;;;14.55;9.65;;;;;;;;;;5011174;28;20441;-54
2022/12/29 07:23:45;;;;;;;17.48;10.95;;;;;;;;;;5011624;28;20360;-53
2022/12/29 07:26:13;;;;;;;18.70;10.18;;;;;;;;;;5011106;28;20029;-58
2022/12/29 07:28:39;;;;;;;19.10;10.40;;;;;;;;;;5009577;28;20801;-53
2022/12/29 07:31:06;;;;;;;15.73;9.63;;;;;;;;;;5011803;28;20318;-54
2022/12/29 07:33:32;;;;;;;18.25;10.55;;;;;;;;;;5009982;28;20391;-57
2022/12/29 07:35:59;;;;;;;14.73;9.80;;;;;;;;;;5010799;28;20021;-53
2022/12/29 07:38:25;;;;;;;15.20;10.30;;;;;;;;;;5010753;28;20076;-59
2022/12/29 07:40:51;;;;;;;16.73;10.00;;;;;;;;;;5010694;28;20048;-56
2022/12/29 07:43:17;;;;;;;16.85;10.00;;;;;;;;;;5011210;28;20115;-57
2022/12/29 07:45:43;;;;;;;15.70;9.68;;;;;;;;;;5012031;28;20018;-59
2022/12/29 07:48:09;;;;;;;15.35;9.07;;;;;;;;;;5012072;28;20056;-60
2022/12/29 07:50:35;;;;;;;14.75;9.50;;;;;;;;;;5010681;28;20058;-60
2022/12/29 07:53:01;;;;;;;16.10;8.70;;;;;;;;;;5011435;28;20041;-64
2022/12/29 07:55:27;;;;;;;14.68;9.07;;;;;;;;;;5010731;28;20026;-66
2022/12/29 07:57:54;;;;;;;14.43;8.90;;;;;;;;;;5011688;28;20082;-66
2022/12/29 08:00:20;;;;;;;17.40;9.23;;;;;;;;;;5011967;28;20109;-66
2022/12/29 08:02:46;;;;;;;16.42;8.73;;;;;;;;;;5011131;28;20033;-65
2022/12/29 08:05:12;;;;;;;16.92;8.43;;;;;;;;;;5009476;28;20513;-66
2022/12/29 08:07:38;;;;;;;18.38;8.43;;;;;;;;;;5012135;28;20025;-65
2022/12/29 08:10:04;;;;;;;15.57;8.48;;;;;;;;;;5011227;28;20497;-65
2022/12/29 08:12:30;;;;;;;13.77;8.35;;;;;;;;;;5011743;28;20026;-66
2022/12/29 08:14:56;;;;;;;19.45;9.13;;;;;;;;;;5011278;28;20030;-66
2022/12/29 08:17:22;;;;;;;21.35;8.60;;;;;;;;;;5011664;28;20026;-65
2022/12/29 08:19:48;;;;;;;13.13;7.57;;;;;;;;;;5010574;28;20037;-66
2022/12/29 08:22:15;;;;;;;16.08;9.40;;;;;;;;;;5011902;28;20036;-66
2022/12/29 08:24:41;;;;;;;13.85;7.32;;;;;;;;;;5011014;28;20029;-66
2022/12/29 08:27:07;;;;;;;14.38;7.57;;;;;;;;;;5011622;28;20498;-66
2022/12/29 08:29:33;;;;;;;13.60;7.10;;;;;;;;;;5010507;28;20112;-66
2022/12/29 08:31:59;;;;;;;14.68;7.82;;;;;;;;;;5012353;28;20144;-67
2022/12/29 08:34:25;;;;;;;16.58;7.55;;;;;;;;;;5011442;28;20129;-67
2022/12/29 08:36:51;;;;;;;14.60;7.18;;;;;;;;;;5011204;28;20537;-67
2022/12/29 08:39:17;;;;;;;14.18;7.15;;;;;;;;;;5012555;28;20033;-65
2022/12/29 08:41:43;;;;;;;14.75;6.90;;;;;;;;;;5012389;28;20077;-68
2022/12/29 08:44:09;;;;;;;16.13;7.10;;;;;;;;;;5013574;28;20077;-68
2022/12/29 08:46:35;;;;;;;14.45;7.32;;;;;;;;;;5013767;28;20479;-68
2022/12/29 08:49:01;;;;;;;18.58;9.40;;;;;;;;;;5012378;28;20094;-70
2022/12/29 08:51:27;;;;;;;18.00;7.65;;;;;;;;;;5012567;28;20041;-69
2022/12/29 08:53:53;;;;;;;19.50;7.07;;;;;;;;;;5010241;28;20026;-70
2022/12/29 08:56:19;;;;;;;14.02;6.88;;;;;;;;;;5012556;28;20026;-70
2022/12/29 08:58:45;;;;;;;14.38;7.18;;;;;;;;;;5011186;28;20025;-71
2022/12/29 09:01:11;;;;;;;14.73;6.93;;;;;;;;;;5013304;28;20029;-71
2022/12/29 09:03:37;;;;;;;13.18;6.55;;;;;;;;;;5015259;28;20033;-71
2022/12/29 09:06:03;;;;;;;12.88;6.68;;;;;;;;;;5014844;28;20026;-70
2022/12/29 09:08:29;;;;;;;13.82;6.70;;;;;;;;;;5014697;28;20053;-71
2022/12/29 09:10:55;;;;;;;13.05;6.78;;;;;;;;;;5017919;28;20037;-71
2022/12/29 09:13:21;;;;;;;16.13;6.72;;;;;;;;;;5019058;28;20360;-70
2022/12/29 09:15:47;;;;;;;18.85;8.35;;;;;;;;;;5022763;28;20030;-70
2022/12/29 09:18:13;;;;;;;13.40;6.65;;;;;;;;;;5022102;28;20061;-70
2022/12/29 09:20:39;;;;;;;14.73;6.90;;;;;;;;;;5018896;28;20049;-70
2022/12/29 09:23:08;;;;;;;20.83;8.13;;;;;;;;;;5019543;28;20464;-70
2022/12/29 09:25:34;;;;;;;15.18;7.03;;;;;;;;;;5018452;28;20504;-70
2022/12/29 09:28:04;;;;;;;13.75;6.78;;;;;;;;;;5019992;28;20030;-70
2022/12/29 09:30:30;;;;;;;16.50;7.90;;;;;;;;;;5018116;28;20022;-70
2022/12/29 09:32:56;;;;;;;13.05;6.95;;;;;;;;;;5018748;28;20026;-73
2022/12/29 09:35:22;;;;;;;15.70;7.20;;;;;;;;;;5018797;28;20037;-72
2022/12/29 09:37:48;;;;;;;18.67;7.38;;;;;;;;;;5020570;28;20030;-71
2022/12/29 09:40:22;;;;;;;15.77;7.20;;;;;;;;;;5018370;28;20029;-72
2022/12/29 09:43:03;;;;;;;18.50;7.32;;;;;;;;;;5017535;28;20119;-72
2022/12/29 09:45:55;;;;;;;15.63;6.90;;;;;;;;;;5017321;28;20033;-70
2022/12/29 09:48:26;;;;;;;17.45;6.95;;;;;;;;;;5018657;28;20159;-71
2022/12/29 09:50:54;;;;;;;14.45;7.10;;;;;;;;;;5018702;28;20030;-71
2022/12/29 09:53:37;;;;;;;14.90;7.47;;;;;;;;;;5019423;28;20095;-72
2022/12/29 09:56:05;;;;;;;18.55;7.50;;;;;;;;;;5019607;28;20030;-72
2022/12/29 09:58:50;;;;;;;14.95;7.10;;;;;;;;;;5018835;28;20061;-72
2022/12/29 10:01:26;;;;;;;15.43;7.20;;;;;;;;;;5019605;28;20089;-73
2022/12/29 10:03:55;;;;;;;16.27;8.10;;;;;;;;;;5017829;28;20057;-73
2022/12/29 10:06:21;;;;;;;19.45;7.50;;;;;;;;;;5017558;28;20455;-72
2022/12/29 10:08:53;;;;;;;14.63;7.28;;;;;;;;;;5018751;28;20037;-71
2022/12/29 10:11:19;;;;;;;18.45;7.32;;;;;;;;;;5020019;28;20045;-72
2022/12/29 10:14:04;;;;;;;16.80;7.10;;;;;;;;;;5019783;28;20022;-69
2022/12/29 10:16:36;;;;;;;17.70;7.70;;;;;;;;;;5019341;28;20028;-69
2022/12/29 10:19:11;;;;;;;17.58;7.72;;;;;;;;;;5019959;28;20022;-70
2022/12/29 10:21:48;;;;;;;15.27;7.15;;;;;;;;;;5019375;28;20030;-69
2022/12/29 10:24:14;;;;;;;15.98;6.90;;;;;;;;;;5018297;28;20136;-70
2022/12/29 10:26:41;;;;;;;16.90;7.80;;;;;;;;;;5017869;28;20069;-70
2022/12/29 10:29:19;;;;;;;15.53;7.13;;;;;;;;;;5020491;28;20033;-72
2022/12/29 10:31:50;;;;;;;17.70;7.70;;;;;;;;;;5019643;28;20268;-71
2022/12/29 10:34:26;;;;;;;13.70;7.05;;;;;;;;;;5017824;28;20026;-71
2022/12/29 10:36:56;;;;;;;14.88;7.70;;;;;;;;;;5018538;28;20109;-70
2022/12/29 10:39:26;;;;;;;17.80;7.60;;;;;;;;;;5016700;28;20029;-73
2022/12/29 10:42:11;;;;;;;16.67;7.40;;;;;;;;;;5015308;28;20033;-70
2022/12/29 10:44:37;;;;;;;13.05;6.90;;;;;;;;;;5017079;28;20026;-69
2022/12/29 10:47:06;;;;;;;14.93;6.68;;;;;;;;;;5016896;28;20049;-69
2022/12/29 10:49:36;;;;;;;13.60;7.20;;;;;;;;;;5016326;28;20029;-69
2022/12/29 10:52:04;;;;;;;16.30;7.03;;;;;;;;;;5017519;28;20517;-70
2022/12/29 10:54:30;;;;;;;15.13;6.88;;;;;;;;;;5016513;28;20081;-69
2022/12/29 10:57:11;;;;;;;17.08;7.30;;;;;;;;;;5015384;28;20034;-70
2022/12/29 10:59:37;;;;;;;17.48;7.10;;;;;;;;;;5016380;28;20131;-68
2022/12/29 11:02:10;;;;;;;15.75;9.18;;;;;;;;;;5016402;28;20032;-69
2022/12/29 11:04:45;;;;;;;15.25;7.22;;;;;;;;;;5015103;28;20081;-70
2022/12/29 11:07:12;;;;;;;17.25;7.63;;;;;;;;;;5016328;28;20041;-71
2022/12/29 11:09:38;;;;;;;16.77;7.90;;;;;;;;;;5015132;28;20026;-71
2022/12/29 11:12:25;;;;;;;18.15;7.45;;;;;;;;;;5016443;28;20116;-69
2022/12/29 11:15:09;;;;;;;17.77;8.88;;;;;;;;;;5016415;28;20045;-69
2022/12/29 11:17:46;;;;;;;14.25;7.95;;;;;;;;;;5017330;28;20029;-71
2022/12/29 11:20:32;;;;;;;15.15;7.57;;;;;;;;;;5016502;28;20022;-71
2022/12/29 11:22:59;;;;;;;14.07;7.47;;;;;;;;;;5010056;28;20062;-70
2022/12/29 11:25:25;;;;;;;13.93;7.70;;;;;;;;;;5015828;28;20026;-71
2022/12/29 11:28:02;;;;;;;16.58;7.47;;;;;;;;;;5017661;28;20115;-71
2022/12/29 11:30:30;;;;;;;19.67;7.53;;;;;;;;;;5017146;28;20030;-70
2022/12/29 11:32:57;;;;;;;16.15;7.28;;;;;;;;;;5016352;28;20097;-71
2022/12/29 11:35:34;;;;;;;13.93;7.22;;;;;;;;;;5014881;28;20061;-69
2022/12/29 11:38:00;;;;;;;14.90;7.65;;;;;;;;;;5016452;28;20030;-72
2022/12/29 11:40:27;;;;;;;15.73;7.70;;;;;;;;;;5014822;28;20175;-71
2022/12/29 11:42:54;;;;;;;15.10;7.25;;;;;;;;;;5014514;28;20094;-71
2022/12/29 11:45:23;;;;;;;13.75;6.88;;;;;;;;;;5014213;28;20036;-70
2022/12/29 11:47:54;;;;;;;12.95;6.70;;;;;;;;;;5016633;28;20026;-69
2022/12/29 11:50:26;;;;;;;13.68;7.10;;;;;;;;;;5015989;28;20026;-69
2022/12/29 11:52:58;;;;;;;14.27;7.10;;;;;;;;;;5019377;28;20424;-70
2022/12/29 11:55:25;;;;;;;16.55;7.30;;;;;;;;;;5016850;28;20026;-69
2022/12/29 11:57:54;;;;;;;15.57;7.72;;;;;;;;;;5017044;28;20034;-70
2022/12/29 12:00:23;;;;;;;15.80;7.43;;;;;;;;;;5018011;28;20032;-70
2022/12/29 12:02:55;;;;;;;15.52;7.30;;;;;;;;;;5027244;23;20076;-67
2022/12/29 12:05:38;;;;;;;15.40;7.30;;;;;;;;;;5009915;28;20552;-66
2022/12/29 12:08:16;;;;;;;17.98;7.78;;;;;;;;;;5010347;28;20032;-67
2022/12/29 12:11:01;;;;;;;18.52;7.20;;;;;;;;;;5010589;28;20044;-66
2022/12/29 12:13:33;;;;;;;17.35;7.40;;;;;;;;;;5024237;28;20056;-65
2022/12/29 12:16:04;;;;;;;14.60;8.57;;;;;;;;;;5025099;28;20513;-68
2022/12/29 12:18:33;;;;;;;16.90;7.40;;;;;;;;;;5010262;28;20036;-66
2022/12/29 12:21:13;;;;;;;14.85;7.43;;;;;;;;;;5025327;28;20532;-67
2022/12/29 12:23:51;;;;;;;16.90;7.32;;;;;;;;;;5009527;28;20025;-65
2022/12/29 12:26:21;;;;;;;16.63;7.38;;;;;;;;;;5025735;28;20022;-66
2022/12/29 12:28:54;;;;;;;16.52;7.55;;;;;;;;;;5010244;28;20026;-64
2022/12/29 12:31:26;;;;;;;17.60;7.50;;;;;;;;;;5010352;28;20029;-64
2022/12/29 12:33:57;;;;;;;14.85;7.13;;;;;;;;;;5007947;28;20505;-66
2022/12/29 12:36:23;;;;;;;14.80;7.18;;;;;;;;;;5009133;28;20500;-66
2022/12/29 12:38:55;;;;;;;13.75;7.20;;;;;;;;;;5010440;28;20101;-65
2022/12/29 12:41:25;;;;;;;17.52;7.47;;;;;;;;;;5007780;28;20410;-67
2022/12/29 12:43:54;;;;;;;15.70;7.50;;;;;;;;;;5009412;28;20026;-68
2022/12/29 12:46:23;;;;;;;18.25;8.05;;;;;;;;;;5010209;28;20057;-66
2022/12/29 12:48:58;;;;;;;19.63;7.78;;;;;;;;;;5010229;28;20052;-67
2022/12/29 12:51:33;;;;;;;19.15;8.15;;;;;;;;;;5013991;28;20110;-67
2022/12/29 12:54:02;;;;;;;17.23;7.47;;;;;;;;;;5013065;28;20041;-67
2022/12/29 12:56:28;;;;;;;17.40;7.30;;;;;;;;;;5013908;28;20080;-66
2022/12/29 12:58:58;;;;;;;14.65;7.30;;;;;;;;;;5012597;28;20394;-67
2022/12/29 13:01:46;;;;;;;16.38;8.00;;;;;;;;;;5013923;28;20121;-66
2022/12/29 13:04:12;;;;;;;17.05;7.40;;;;;;;;;;5011318;28;20509;-66
2022/12/29 13:06:41;;;;;;;14.80;7.13;;;;;;;;;;5013726;28;20041;-67
2022/12/29 13:09:26;;;;;;;14.95;7.50;;;;;;;;;;5013860;28;20064;-65
2022/12/29 13:12:11;;;;;;;15.90;7.88;;;;;;;;;;5013479;28;20468;-66
2022/12/29 13:14:40;;;;;;;18.02;8.60;;;;;;;;;;5012748;28;20105;-65
2022/12/29 13:17:13;;;;;;;17.15;7.40;;;;;;;;;;5013588;28;20034;-69
2022/12/29 13:19:42;;;;;;;18.20;8.77;;;;;;;;;;5012169;28;20091;-66
2022/12/29 13:22:19;;;;;;;15.38;7.60;;;;;;;;;;5013344;28;20022;-65
2022/12/29 13:24:51;;;;;;;13.80;6.93;;;;;;;;;;5011240;28;20439;-67
2022/12/29 13:27:46;;;;;;;18.00;7.20;;;;;;;;;;5014137;28;20026;-66
2022/12/29 13:30:32;;;;;;;14.85;8.00;;;;;;;;;;5004298;28;20453;-67
2022/12/29 13:33:20;;;;;;;18.48;7.97;;;;;;;;;;5013093;28;20056;-64
2022/12/29 13:35:54;;;;;;;18.60;7.75;;;;;;;;;;5013139;28;20032;-64
2022/12/29 13:38:26;;;;;;;14.93;7.60;;;;;;;;;;5013299;28;20022;-65
2022/12/29 13:40:57;;;;;;;15.98;7.60;;;;;;;;;;5010687;28;20022;-66
2022/12/29 13:43:23;;;;;;;15.65;7.75;;;;;;;;;;5010923;28;20014;-65
2022/12/29 13:45:53;;;;;;;15.80;7.40;;;;;;;;;;5013010;28;20032;-67
2022/12/29 13:48:35;;;;;;;15.80;7.93;;;;;;;;;;5013227;28;20438;-68
2022/12/29 13:51:02;;;;;;;16.20;8.20;;;;;;;;;;5012657;28;20082;-63
2022/12/29 13:53:40;;;;;;;17.58;7.70;;;;;;;;;;5012152;28;20021;-65
2022/12/29 13:56:20;;;;;;;14.63;7.22;;;;;;;;;;5012891;28;20018;-65
2022/12/29 13:59:04;;;;;;;15.27;8.20;;;;;;;;;;5012574;28;20025;-64
2022/12/29 14:01:30;;;;;;;15.85;7.85;;;;;;;;;;5011312;28;20030;-65
2022/12/29 14:03:59;;;;;;;18.27;8.65;;;;;;;;;;5011331;28;20096;-65
2022/12/29 14:06:28;;;;;;;16.73;7.90;;;;;;;;;;5012773;28;20025;-61
2022/12/29 14:09:14;;;;;;;16.73;7.75;;;;;;;;;;5012146;28;20068;-62
2022/12/29 14:11:40;;;;;;;14.73;7.60;;;;;;;;;;5000556;28;20034;-66
2022/12/29 14:14:17;;;;;;;20.17;8.23;;;;;;;;;;5011497;28;20088;-64
2022/12/29 14:16:44;;;;;;;15.95;7.80;;;;;;;;;;5012303;28;20029;-65
2022/12/29 14:19:15;;;;;;;17.90;7.70;;;;;;;;;;5012315;28;20026;-65
2022/12/29 14:21:41;;;;;;;15.73;7.82;;;;;;;;;;5012346;28;20022;-64
2022/12/29 14:24:40;;;;;;;15.07;7.63;;;;;;;;;;5011398;28;20030;-63
2022/12/29 14:27:09;;;;;;;17.13;7.93;;;;;;;;;;4989816;28;20036;-65
2022/12/29 14:29:41;;;;;;;17.90;7.50;;;;;;;;;;5012012;28;20066;-67
2022/12/29 14:32:25;;;;;;;16.17;8.00;;;;;;;;;;5011560;28;20026;-66
2022/12/29 14:34:51;;;;;;;16.38;7.75;;;;;;;;;;5011704;28;20026;-66
2022/12/29 14:37:25;;;;;;;19.25;7.28;;;;;;;;;;5012145;28;20545;-67
2022/12/29 14:40:02;;;;;;;16.83;8.18;;;;;;;;;;5011396;28;20540;-67
2022/12/29 14:42:30;;;;;;;18.70;7.60;;;;;;;;;;5012130;28;20030;-66
2022/12/29 14:45:02;;;;;;;17.70;7.40;;;;;;;;;;5009654;28;20111;-66
2022/12/29 14:47:31;;;;;;;16.20;7.90;;;;;;;;;;5012159;28;20095;-66
2022/12/29 14:50:03;;;;;;;17.98;7.32;;;;;;;;;;5011982;28;20022;-64
2022/12/29 14:52:30;;;;;;;15.80;7.95;;;;;;;;;;5011986;28;20066;-65
2022/12/29 14:55:08;;;;;;;17.60;7.50;;;;;;;;;;5010999;28;20030;-67
2022/12/29 14:57:41;;;;;;;17.15;7.47;;;;;;;;;;5009799;28;20037;-68
2022/12/29 15:00:07;;;;;;;15.38;7.20;;;;;;;;;;5010881;28;20030;-67
2022/12/29 15:02:38;;;;;;;14.88;7.00;;;;;;;;;;5011758;28;20399;-63
2022/12/29 15:05:05;;;;;;;17.77;7.90;;;;;;;;;;5009491;28;20053;-63
2022/12/29 15:07:32;;;;;;;17.48;7.30;;;;;;;;;;5011973;28;20083;-65
2022/12/29 15:10:08;;;;;;;15.93;7.28;;;;;;;;;;5011718;28;20028;-67
2022/12/29 15:12:46;;;;;;;15.80;7.07;;;;;;;;;;5011704;28;20014;-65